Mashhad, Iran

12:06 PM IRDT on August 01, 2015 (GMT +0430)
Shahid Hashemi Nejad International | | Change Station
CLOSE
Current Station
Airport
Location: Mashhad,
Elevation: 3278 ft
Nearby Weather Stations

Elev 3278 ft 36.27 °N, 59.63 °E | Updated 36 minutes ago

Partly Cloudy
Partly Cloudy
91 °F
Feels Like 91 °F
N
5
Wind Variable Wind from WNW

Today
High -- | Low -- °F
--% Chance of Precip.
Yesterday
High -- | Low -- °F
Precip. -- in
5:37 AM 7:37 PM
Full, 99% visible
Pressure 29.95 in
Visibility 6.2 miles
Clouds Few 4000 ft
Dew Point 34 °F
Humidity 13%
Rainfall 0.00 in
Snow Depth Not available.
UV 10 out of 12
Pollen Not available.
Air Quality Not available.
Flu Activity Not available.
METAR OIMM 010700Z 30004KT 9999 FEW040 33/01 Q1014 A2996

More Conditions Fewer Conditions

Pressure 29.95 in
Visibility 6.2 miles
Clouds Few 4000 ft
Dew Point 34 °F
Humidity 13%
Rainfall 0.00 in
Snow Depth Not available.
UV 10 out of 12
Pollen Not available.
Air Quality Not available.
Flu Activity Not available.
METAR OIMM 010700Z 30004KT 9999 FEW040 33/01 Q1014 A2996

More Conditions Fewer Conditions

10-Day Weather Forecast

×

Almanac

Astronomy

Aug. 01, 2015 Rise Set
Actual Time
Civil Twilight
Nautical Twilight
Astronomical Twilight
Moon
Length of Visible Light
Length of Day
Tomorrow will be .
, % of the Moon is Illuminated

Today's Extremes

Country Highs Country Lows

Community

WunderPhotos

Upload Photos

1,842,899 photos uploaded!

WunderBlogs® & News

Nearby

Air Quality

  Air Quality AQ Index Pollutant
Not available.

Snow Depth

Station Depth Elevation

Earthquake Activity

City Distance Mag. Time & Date
Minimum magnitude displayed is 2.5.

Coastal Water Temperatures

Place Temperature

Stations

Nearby Weather Stations

Station Location Temp. Windchill Dew Point Humidity Wind Precip. Elev Updated Type